Time;durP1;ratioP1;P1;durP2;ratioP2;P2;SDS_P1;SDS_P2;PMS_P1;PMS_P2;Temp;Humidity;BMP_temperature;BMP_pressure;BME280_temperature;BME280_humidity;BME280_pressure;Samples;Min_cycle;Max_cycle;Signal;HPM_P1;HPM_P2
2022/08/25 00:00:42;;;;;;;14.60;5.60;;;19.20;85.90;;;;;;5015687;28;20576;-90
2022/08/25 00:03:09;;;;;;;8.48;4.50;;;19.10;85.90;;;;;;5033189;28;20199;-89
2022/08/25 00:05:35;;;;;;;10.13;4.38;;;19.10;86.00;;;;;;5033264;28;20255;-89
2022/08/25 00:08:02;;;;;;;9.70;4.40;;;19.10;86.10;;;;;;5015574;28;20268;-89
2022/08/25 00:10:28;;;;;;;9.40;4.97;;;19.00;86.20;;;;;;5016296;28;20250;-89
2022/08/25 00:12:54;;;;;;;9.35;4.43;;;19.00;86.40;;;;;;5015468;28;20196;-89
2022/08/25 00:15:21;;;;;;;9.82;4.55;;;19.00;86.40;;;;;;5036093;28;20247;-89
2022/08/25 00:17:47;;;;;;;12.23;4.00;;;19.00;86.40;;;;;;5022039;28;20180;-89
2022/08/25 00:20:14;;;;;;;9.45;4.78;;;18.90;86.50;;;;;;5021997;28;20181;-89
2022/08/25 00:22:40;;;;;;;8.15;5.05;;;18.90;86.50;;;;;;5040082;28;20259;-89
2022/08/25 00:25:07;;;;;;;4.97;4.10;;;18.90;86.60;;;;;;5039668;28;20204;-89
2022/08/25 00:27:32;;;;;;;7.10;4.57;;;18.90;86.60;;;;;;5021938;28;20188;-89
2022/08/25 00:29:59;;;;;;;9.60;4.55;;;18.90;86.70;;;;;;5021876;28;20203;-89
2022/08/25 00:32:25;;;;;;;10.23;4.63;;;18.80;86.80;;;;;;5039851;28;20628;-89
2022/08/25 00:34:52;;;;;;;8.30;4.60;;;18.80;86.90;;;;;;5021833;28;20173;-89
2022/08/25 00:37:18;;;;;;;6.72;4.75;;;18.80;87.00;;;;;;5021892;28;20179;-89
2022/08/25 00:39:44;;;;;;;8.93;5.00;;;18.70;87.10;;;;;;5021834;28;20172;-89
2022/08/25 00:42:10;;;;;;;8.18;4.85;;;18.70;87.10;;;;;;5021937;28;20531;-89
2022/08/25 00:44:36;;;;;;;9.00;4.75;;;18.80;87.20;;;;;;5021909;28;20200;-89
2022/08/25 00:47:04;;;;;;;9.30;4.40;;;18.70;87.20;;;;;;5022178;28;20172;-89
2022/08/25 00:49:36;;;;;;;7.22;4.85;;;18.70;87.20;;;;;;5021771;28;20550;-89
2022/08/25 00:52:15;;;;;;;7.72;4.78;;;18.70;87.30;;;;;;5021674;28;20666;-88
2022/08/25 00:54:48;;;;;;;8.48;5.10;;;18.60;87.40;;;;;;5021732;28;20193;-88
2022/08/25 00:57:18;;;;;;;12.68;5.60;;;18.70;87.50;;;;;;5039401;28;20176;-88
2022/08/25 00:59:43;;;;;;;7.30;4.97;;;18.60;87.60;;;;;;5021618;28;20172;-88
2022/08/25 01:02:13;;;;;;;10.82;5.20;;;18.60;87.60;;;;;;5022648;28;20267;-88
2022/08/25 01:04:39;;;;;;;7.38;5.20;;;18.70;87.60;;;;;;5021816;28;20196;-88
2022/08/25 01:07:06;;;;;;;6.88;5.18;;;18.60;87.60;;;;;;5039297;28;20185;-88
2022/08/25 01:09:32;;;;;;;15.25;5.60;;;18.70;87.70;;;;;;5039832;28;20169;-88
2022/08/25 01:11:59;;;;;;;7.75;4.95;;;18.60;87.70;;;;;;5021568;28;20575;-88
2022/08/25 01:14:26;;;;;;;10.55;4.80;;;18.60;87.80;;;;;;5021264;28;20199;-88
2022/08/25 01:16:53;;;;;;;12.38;5.40;;;18.60;87.80;;;;;;5039224;28;20168;-89
2022/08/25 01:19:19;;;;;;;8.00;5.07;;;18.60;88.00;;;;;;5021766;28;20199;-88
2022/08/25 01:21:49;;;;;;;11.32;5.53;;;18.60;87.90;;;;;;5021447;28;20184;-88
2022/08/25 01:24:36;;;;;;;8.63;5.53;;;18.60;88.00;;;;;;5021334;28;20200;-88
2022/08/25 01:27:02;;;;;;;9.13;5.10;;;18.60;88.10;;;;;;5018582;28;20278;-88
2022/08/25 01:29:29;;;;;;;12.73;5.80;;;18.60;88.20;;;;;;5036238;28;20172;-88
2022/08/25 01:31:58;;;;;;;8.18;5.20;;;18.50;88.30;;;;;;5018190;28;20620;-88
2022/08/25 01:34:27;;;;;;;11.38;5.50;;;18.50;88.40;;;;;;5018132;28;20289;-88
2022/08/25 01:36:54;;;;;;;9.77;5.40;;;18.50;88.50;;;;;;5018137;28;20188;-88
2022/08/25 01:39:20;;;;;;;10.52;6.22;;;18.50;88.60;;;;;;5035806;28;20647;-88
2022/08/25 01:42:08;;;;;;;11.90;5.20;;;18.50;88.70;;;;;;5018000;28;20553;-88
2022/08/25 01:44:36;;;;;;;7.75;4.95;;;18.50;88.70;;;;;;5018010;28;20258;-88
2022/08/25 01:47:03;;;;;;;9.90;5.80;;;18.50;88.70;;;;;;5018038;28;20188;-88
2022/08/25 01:49:28;;;;;;;11.38;5.85;;;18.50;88.70;;;;;;5017864;28;20188;-88
2022/08/25 01:52:13;;;;;;;9.68;5.55;;;18.40;88.70;;;;;;5017908;28;20205;-88
2022/08/25 01:54:39;;;;;;;10.23;5.63;;;18.30;88.80;;;;;;5017803;28;20239;-88
2022/08/25 01:57:05;;;;;;;9.70;5.90;;;18.30;88.90;;;;;;5017902;28;20180;-88
2022/08/25 01:59:31;;;;;;;6.90;5.88;;;18.20;89.00;;;;;;5017936;28;20180;-88
2022/08/25 02:01:56;;;;;;;11.63;5.85;;;18.20;89.20;;;;;;5017770;28;20181;-88
2022/08/25 02:04:22;;;;;;;12.05;6.40;;;18.20;89.40;;;;;;5035248;28;20219;-88
2022/08/25 02:06:48;;;;;;;13.70;6.28;;;18.20;89.40;;;;;;5035878;28;20176;-88
2022/08/25 02:09:16;;;;;;;8.95;5.95;;;18.20;89.50;;;;;;5017732;28;20231;-88
2022/08/25 02:11:44;;;;;;;10.07;6.03;;;18.20;89.50;;;;;;5035167;28;20680;-88
2022/08/25 02:14:11;;;;;;;8.77;5.88;;;18.20;89.40;;;;;;5017366;28;20679;-88
2022/08/25 02:16:39;;;;;;;7.78;5.80;;;18.20;89.50;;;;;;5035043;28;20208;-88
2022/08/25 02:19:08;;;;;;;7.10;5.90;;;18.10;89.60;;;;;;5017384;28;20180;-88
2022/08/25 02:21:34;;;;;;;10.43;5.43;;;18.10;89.60;;;;;;5035138;28;20181;-88
2022/08/25 02:24:00;;;;;;;7.35;5.90;;;18.10;89.60;;;;;;5017145;28;20541;-88
2022/08/25 02:26:26;;;;;;;9.70;5.72;;;18.10;89.80;;;;;;5034848;28;20182;-88
2022/08/25 02:28:52;;;;;;;9.15;6.22;;;18.00;89.90;;;;;;5017249;28;20612;-88
2022/08/25 02:31:20;;;;;;;8.65;6.63;;;18.00;89.90;;;;;;5017070;28;20258;-88
2022/08/25 02:33:45;;;;;;;8.02;6.90;;;18.00;90.00;;;;;;5034708;28;20199;-88
2022/08/25 02:36:11;;;;;;;9.50;6.65;;;18.00;90.20;;;;;;5017012;28;20169;-88
2022/08/25 02:38:38;;;;;;;9.80;6.80;;;17.90;90.20;;;;;;5016893;28;20176;-88
2022/08/25 02:41:19;;;;;;;9.93;6.68;;;17.90;90.30;;;;;;5017029;28;20181;-88
2022/08/25 02:43:47;;;;;;;11.20;6.88;;;17.90;90.40;;;;;;5016953;28;20203;-88
2022/08/25 02:46:13;;;;;;;12.82;7.28;;;17.90;90.50;;;;;;5017131;28;20231;-88
2022/08/25 02:48:39;;;;;;;9.90;7.13;;;17.90;90.70;;;;;;5016864;28;20651;-88
2022/08/25 02:51:05;;;;;;;10.60;7.13;;;17.90;90.70;;;;;;5016711;28;20231;-88
2022/08/25 02:53:32;;;;;;;13.30;7.00;;;17.90;90.70;;;;;;5016625;28;20192;-88
2022/08/25 02:55:58;;;;;;;12.23;7.07;;;17.80;90.80;;;;;;5016700;28;20173;-88
2022/08/25 02:58:24;;;;;;;11.30;7.28;;;17.90;90.80;;;;;;5017223;28;20184;-88
2022/08/25 03:00:50;;;;;;;7.95;6.65;;;17.80;90.80;;;;;;5016572;28;20552;-88
2022/08/25 03:03:16;;;;;;;13.90;7.10;;;17.80;90.90;;;;;;5034166;28;20278;-88
2022/08/25 03:05:42;;;;;;;13.07;7.13;;;17.80;90.90;;;;;;5016693;28;20216;-88
2022/08/25 03:08:09;;;;;;;10.10;6.70;;;17.80;90.90;;;;;;5034169;28;20666;-88
2022/08/25 03:10:35;;;;;;;10.07;6.50;;;17.80;91.00;;;;;;5016323;28;20701;-88
2022/08/25 03:13:01;;;;;;;11.77;6.63;;;17.80;91.00;;;;;;5034040;28;20197;-88
2022/08/25 03:15:27;;;;;;;11.45;7.07;;;17.80;90.90;;;;;;5016374;28;20172;-88
2022/08/25 03:17:54;;;;;;;9.32;7.00;;;17.70;91.00;;;;;;5016264;28;20173;-88
2022/08/25 03:20:24;;;;;;;7.95;6.38;;;17.70;90.90;;;;;;5033914;28;20255;-88
2022/08/25 03:22:50;;;;;;;11.38;6.78;;;17.70;90.90;;;;;;5016252;28;20679;-87
2022/08/25 03:28:01;;;;;;;9.13;7.03;;;17.70;91.00;;;;;;5034151;28;20198;-87
2022/08/25 03:30:28;;;;;;;12.93;7.53;;;17.70;91.10;;;;;;5016131;28;20255;-88
2022/08/25 03:32:54;;;;;;;12.23;7.63;;;17.70;91.10;;;;;;5033717;28;20189;-88
2022/08/25 03:35:20;;;;;;;11.40;7.13;;;17.70;91.10;;;;;;5016020;28;20173;-88
2022/08/25 03:37:45;;;;;;;14.60;8.13;;;17.60;91.10;;;;;;5016093;28;20184;-88
2022/08/25 03:40:13;;;;;;;10.93;7.95;;;17.60;91.20;;;;;;5015968;28;20272;-88
2022/08/25 03:42:41;;;;;;;13.50;8.63;;;17.60;91.30;;;;;;5016219;28;20223;-88
2022/08/25 03:45:07;;;;;;;14.00;7.57;;;17.60;91.30;;;;;;5015914;28;20179;-88
2022/08/25 03:47:33;;;;;;;14.95;7.72;;;17.60;91.30;;;;;;5015766;28;20557;-88
2022/08/25 03:49:59;;;;;;;11.27;8.10;;;17.60;91.40;;;;;;5032936;28;20263;-88
2022/08/25 03:52:25;;;;;;;13.70;7.60;;;17.60;91.40;;;;;;5015725;28;20572;-88
2022/08/25 03:54:51;;;;;;;11.73;8.00;;;17.60;91.40;;;;;;5033324;28;20192;-88
2022/08/25 03:57:19;;;;;;;14.18;7.90;;;17.60;91.40;;;;;;5015608;28;20527;-88
2022/08/25 03:59:44;;;;;;;12.93;8.15;;;17.60;91.40;;;;;;5015995;28;20211;-88
2022/08/25 04:02:10;;;;;;;17.35;8.45;;;17.60;91.30;;;;;;5015631;28;20265;-89
2022/08/25 04:04:36;;;;;;;10.02;7.55;;;17.50;91.30;;;;;;5015552;28;20215;-88
2022/08/25 04:07:01;;;;;;;13.52;7.75;;;17.50;91.30;;;;;;5016349;28;20311;-88
2022/08/25 04:09:27;;;;;;;10.52;7.80;;;17.40;91.30;;;;;;5033195;28;20180;-88
2022/08/25 04:11:52;;;;;;;10.30;7.32;;;17.40;91.30;;;;;;5015520;28;20209;-88
2022/08/25 04:14:20;;;;;;;12.45;7.35;;;17.40;91.30;;;;;;5033021;28;20193;-88
2022/08/25 04:16:45;;;;;;;12.55;8.35;;;17.40;91.30;;;;;;5015560;28;20183;-88
2022/08/25 04:19:11;;;;;;;8.35;7.28;;;17.40;91.40;;;;;;5033084;28;20168;-88
2022/08/25 04:21:38;;;;;;;14.10;7.63;;;17.30;91.40;;;;;;5016274;28;20246;-88
2022/08/25 04:24:05;;;;;;;14.18;7.95;;;17.30;91.50;;;;;;5015393;28;20279;-88
2022/08/25 04:26:39;;;;;;;14.35;8.18;;;17.30;91.50;;;;;;5015345;28;20291;-88
2022/08/25 04:29:08;;;;;;;10.90;8.15;;;17.20;91.60;;;;;;5015361;28;20556;-88
2022/08/25 04:31:34;;;;;;;13.23;8.32;;;17.20;91.70;;;;;;5032981;28;20196;-88
2022/08/25 04:34:04;;;;;;;14.43;8.98;;;17.20;91.80;;;;;;5015245;28;20197;-88
2022/08/25 04:36:31;;;;;;;13.23;9.10;;;17.30;91.90;;;;;;5015274;28;20177;-88
2022/08/25 04:38:57;;;;;;;11.95;9.02;;;17.30;91.90;;;;;;5015268;28;20231;-88
2022/08/25 04:41:23;;;;;;;18.27;8.90;;;17.30;92.00;;;;;;5015826;28;20177;-88
2022/08/25 04:43:50;;;;;;;12.43;8.90;;;17.40;92.00;;;;;;5015256;28;20201;-88
2022/08/25 04:46:19;;;;;;;12.98;8.43;;;17.40;92.10;;;;;;5033367;28;20230;-88
2022/08/25 04:48:45;;;;;;;11.95;9.00;;;17.40;92.10;;;;;;5015319;28;20203;-88
2022/08/25 04:51:14;;;;;;;15.93;8.70;;;17.50;92.10;;;;;;5032776;28;20683;-87
2022/08/25 04:53:40;;;;;;;13.48;9.10;;;17.50;92.00;;;;;;5015086;28;20250;-88
2022/08/25 04:56:12;;;;;;;13.05;9.95;;;17.50;92.10;;;;;;5015261;28;20181;-88
2022/08/25 04:58:38;;;;;;;12.95;8.95;;;17.60;92.10;;;;;;5015210;28;20168;-88
2022/08/25 05:01:05;;;;;;;17.63;9.10;;;17.60;92.10;;;;;;5014994;28;20172;-88
2022/08/25 05:03:30;;;;;;;11.13;9.40;;;17.70;92.10;;;;;;5018422;28;20689;-88
2022/08/25 05:05:56;;;;;;;10.52;9.25;;;17.70;92.10;;;;;;5018844;28;20180;-87
2022/08/25 05:08:22;;;;;;;14.07;8.90;;;17.70;92.10;;;;;;5018830;28;20181;-88
2022/08/25 05:10:49;;;;;;;14.70;9.52;;;17.80;92.10;;;;;;5036306;28;20210;-88
2022/08/25 05:13:14;;;;;;;13.48;9.15;;;17.80;92.10;;;;;;5018548;28;20196;-88
2022/08/25 05:15:49;;;;;;;10.48;8.60;;;17.80;92.00;;;;;;5018671;28;20168;-88
2022/08/25 05:18:16;;;;;;;10.38;8.57;;;17.80;91.90;;;;;;5036325;28;20160;-88
2022/08/25 05:20:41;;;;;;;12.45;9.15;;;17.90;91.90;;;;;;5018616;28;20196;-88
2022/08/25 05:23:07;;;;;;;11.98;8.25;;;17.90;91.90;;;;;;5018436;28;20193;-88
2022/08/25 05:25:33;;;;;;;14.57;8.85;;;18.00;91.90;;;;;;5018455;28;20200;-88
2022/08/25 05:27:58;;;;;;;10.23;7.97;;;18.00;91.80;;;;;;5018652;28;20678;-87
2022/08/25 05:30:24;;;;;;;15.52;8.93;;;18.10;91.80;;;;;;5018265;28;20176;-88
2022/08/25 05:32:49;;;;;;;14.48;8.50;;;18.20;91.80;;;;;;5018966;28;20204;-88
2022/08/25 05:35:15;;;;;;;15.27;8.52;;;18.20;91.70;;;;;;5018329;28;20169;-88
2022/08/25 05:37:41;;;;;;;11.45;8.82;;;18.20;91.60;;;;;;5018249;28;20303;-88
2022/08/25 05:40:09;;;;;;;13.32;9.20;;;18.20;91.50;;;;;;5035872;28;20647;-88
2022/08/25 05:42:34;;;;;;;16.85;8.45;;;18.30;91.50;;;;;;5018326;28;20176;-88
2022/08/25 05:45:00;;;;;;;11.60;8.23;;;18.40;91.40;;;;;;5018329;28;20550;-88
2022/08/25 05:47:26;;;;;;;12.43;8.15;;;18.40;91.30;;;;;;5018123;28;20267;-88
2022/08/25 05:49:51;;;;;;;10.82;7.85;;;18.50;91.20;;;;;;5017966;28;20172;-88
2022/08/25 05:52:17;;;;;;;11.30;8.13;;;18.50;91.00;;;;;;5035467;28;20207;-88
2022/08/25 05:54:43;;;;;;;12.48;8.00;;;18.60;90.90;;;;;;5017831;28;20211;-88
2022/08/25 05:57:08;;;;;;;12.80;7.80;;;18.70;90.80;;;;;;5017851;28;20259;-88
2022/08/25 05:59:34;;;;;;;16.73;8.07;;;18.70;90.70;;;;;;5035518;28;20678;-87
2022/08/25 06:04:44;;;;;;;10.05;7.70;;;18.80;90.40;;;;;;5035689;28;20277;-87
2022/08/25 06:07:11;;;;;;;12.18;8.25;;;18.80;90.30;;;;;;5017624;28;20655;-86
2022/08/25 06:09:41;;;;;;;10.52;7.18;;;18.90;90.30;;;;;;5017653;28;20230;-87
2022/08/25 06:12:07;;;;;;;11.10;7.70;;;19.00;90.10;;;;;;5035445;28;20212;-87
2022/08/25 06:14:34;;;;;;;16.65;7.80;;;19.10;90.10;;;;;;5017035;28;20296;-88
2022/08/25 06:17:00;;;;;;;14.63;8.55;;;19.10;89.90;;;;;;5035164;28;20700;-87
2022/08/25 06:19:26;;;;;;;15.32;8.63;;;19.20;89.70;;;;;;5017338;28;20173;-87
2022/08/25 06:21:56;;;;;;;14.77;7.60;;;19.20;89.50;;;;;;5017500;28;20211;-88
2022/08/25 06:24:25;;;;;;;13.43;7.60;;;19.20;89.40;;;;;;5017417;28;20266;-87
2022/08/25 06:26:50;;;;;;;14.35;7.97;;;19.30;89.30;;;;;;5017202;28;20216;-87
2022/08/25 06:29:16;;;;;;;14.75;7.75;;;19.40;89.10;;;;;;5017228;28;20667;-88
2022/08/25 06:31:42;;;;;;;9.07;7.47;;;19.40;89.00;;;;;;5035013;28;20275;-88
2022/08/25 06:34:08;;;;;;;13.10;7.32;;;19.50;88.90;;;;;;5034696;28;20193;-87
2022/08/25 06:36:34;;;;;;;13.75;7.63;;;19.50;88.80;;;;;;5035066;28;20196;-88
2022/08/25 06:39:00;;;;;;;10.98;6.85;;;19.70;89.00;;;;;;5016921;28;20659;-87
2022/08/25 06:41:26;;;;;;;9.95;7.88;;;19.70;88.60;;;;;;5034749;28;20184;-87
2022/08/25 06:43:51;;;;;;;12.98;7.43;;;19.70;88.30;;;;;;5034788;28;20561;-87
2022/08/25 06:46:21;;;;;;;11.98;7.78;;;19.70;88.20;;;;;;5016881;28;20185;-88
2022/08/25 06:48:47;;;;;;;13.88;8.10;;;19.70;88.00;;;;;;5034498;28;20172;-87
2022/08/25 06:51:15;;;;;;;13.77;7.07;;;19.80;87.90;;;;;;5017058;28;20579;-88
2022/08/25 06:53:42;;;;;;;10.85;6.95;;;19.80;88.00;;;;;;5016702;28;20606;-87
2022/08/25 06:56:08;;;;;;;10.45;7.45;;;19.90;87.80;;;;;;5016701;28;20235;-87
2022/08/25 06:58:34;;;;;;;10.52;7.68;;;19.90;87.70;;;;;;5016675;28;20204;-88
2022/08/25 07:01:07;;;;;;;13.18;9.13;;;19.90;87.60;;;;;;5016701;28;20204;-88
2022/08/25 07:03:33;;;;;;;12.15;9.20;;;19.90;87.10;;;;;;5034368;28;20693;-87
2022/08/25 07:05:58;;;;;;;11.75;9.82;;;19.80;87.20;;;;;;5034283;28;20173;-87
2022/08/25 07:08:24;;;;;;;14.13;10.48;;;19.80;87.50;;;;;;5016583;28;20230;-88
2022/08/25 07:10:49;;;;;;;13.15;10.60;;;19.80;87.50;;;;;;5016513;28;20569;-87
2022/08/25 07:13:15;;;;;;;12.50;11.00;;;19.80;87.50;;;;;;5034046;28;20188;-87
2022/08/25 07:15:42;;;;;;;15.73;12.25;;;19.80;87.50;;;;;;5034116;28;20196;-87
2022/08/25 07:18:08;;;;;;;18.30;13.10;;;19.70;87.70;;;;;;5016322;28;20256;-87
2022/08/25 07:20:34;;;;;;;27.48;13.68;;;19.80;87.70;;;;;;5016275;28;20271;-88
2022/08/25 07:23:00;;;;;;;24.55;15.43;;;19.80;87.50;;;;;;5033863;28;20567;-87
2022/08/25 07:25:26;;;;;;;21.10;16.17;;;19.70;87.70;;;;;;5033068;28;20177;-88
2022/08/25 07:27:52;;;;;;;20.40;16.50;;;19.70;88.00;;;;;;5033769;28;20200;-87
2022/08/25 07:30:18;;;;;;;23.15;17.00;;;19.70;88.10;;;;;;5033889;28;20176;-87
2022/08/25 07:32:43;;;;;;;24.88;18.13;;;19.70;88.00;;;;;;5016029;28;20539;-88
2022/08/25 07:35:15;;;;;;;23.52;17.95;;;19.60;88.10;;;;;;5016839;28;20685;-88
2022/08/25 07:37:46;;;;;;;31.52;19.23;;;19.70;88.50;;;;;;5033750;28;20631;-88
2022/08/25 07:40:24;;;;;;;29.35;19.15;;;19.90;88.50;;;;;;5015965;28;20176;-88
2022/08/25 07:42:55;;;;;;;23.95;18.85;;;19.90;88.40;;;;;;5015931;28;20238;-87
2022/08/25 07:45:29;;;;;;;23.65;18.48;;;19.90;88.40;;;;;;5015924;28;20236;-87
2022/08/25 07:48:04;;;;;;;25.42;18.67;;;19.90;88.20;;;;;;5016383;28;20238;-88
2022/08/25 07:50:32;;;;;;;22.55;20.15;;;19.90;88.20;;;;;;5033818;28;20183;-88
2022/08/25 07:52:58;;;;;;;24.50;20.92;;;19.90;88.10;;;;;;5015763;28;20284;-87
2022/08/25 07:55:26;;;;;;;25.63;18.30;;;19.80;88.40;;;;;;5015851;28;20183;-88
2022/08/25 07:57:52;;;;;;;26.48;18.92;;;19.90;88.80;;;;;;5016053;28;20173;-87
2022/08/25 08:00:19;;;;;;;23.48;17.92;;;19.90;88.20;;;;;;5015737;28;20650;-87
2022/08/25 08:02:44;;;;;;;25.02;19.48;;;20.00;88.80;;;;;;5016150;28;20176;-87
2022/08/25 08:05:11;;;;;;;25.73;19.80;;;20.10;88.20;;;;;;5015641;28;20219;-88
2022/08/25 08:07:37;;;;;;;22.60;19.23;;;20.20;87.90;;;;;;5015672;28;20589;-88
2022/08/25 08:10:05;;;;;;;27.33;18.50;;;20.30;88.00;;;;;;5015522;28;20311;-88
2022/08/25 08:12:30;;;;;;;27.20;19.05;;;20.20;87.60;;;;;;5015765;28;20192;-88
2022/08/25 08:14:57;;;;;;;23.38;17.73;;;20.20;87.80;;;;;;5015647;28;20176;-88
2022/08/25 08:17:23;;;;;;;23.05;20.08;;;20.30;88.00;;;;;;5015728;28;20259;-88
2022/08/25 08:19:49;;;;;;;25.10;18.75;;;20.30;87.50;;;;;;5015379;28;20315;-88
2022/08/25 08:22:14;;;;;;;24.40;17.42;;;20.30;87.50;;;;;;5015806;28;20177;-88
2022/08/25 08:24:43;;;;;;;21.00;18.08;;;20.30;87.40;;;;;;5015390;28;20193;-87
2022/08/25 08:27:09;;;;;;;26.50;17.15;;;20.30;87.40;;;;;;5015322;28;20565;-88
2022/08/25 08:29:36;;;;;;;24.50;17.90;;;20.50;87.40;;;;;;5033327;28;20183;-88
2022/08/25 08:32:04;;;;;;;21.73;17.05;;;20.60;87.10;;;;;;5015276;28;20287;-88
2022/08/25 08:34:30;;;;;;;23.10;19.35;;;20.80;86.80;;;;;;5015485;28;20279;-88
2022/08/25 08:36:58;;;;;;;22.15;18.00;;;21.00;86.40;;;;;;5017804;28;20264;-89
2022/08/25 08:39:24;;;;;;;21.10;16.98;;;21.00;86.20;;;;;;5019285;28;20185;-88
2022/08/25 08:42:16;;;;;;;25.40;17.70;;;21.10;86.20;;;;;;5019343;28;20180;-88
2022/08/25 08:44:45;;;;;;;19.92;15.13;;;21.10;85.60;;;;;;5019089;28;20201;-88
2022/08/25 08:47:26;;;;;;;17.77;15.32;;;21.20;86.10;;;;;;5036949;28;20177;-88
2022/08/25 08:50:05;;;;;;;19.00;14.82;;;21.20;85.60;;;;;;5020029;28;20164;-88
2022/08/25 08:52:53;;;;;;;16.67;13.98;;;21.30;85.10;;;;;;5019848;28;20192;-86
2022/08/25 08:55:54;;;;;;;16.58;13.10;;;21.10;85.00;;;;;;5036736;28;20153;-87
2022/08/25 08:58:33;;;;;;;19.23;14.88;;;21.00;85.00;;;;;;5014776;28;20180;-88
2022/08/25 09:01:00;;;;;;;17.17;14.43;;;20.90;85.40;;;;;;5036747;28;20163;-87
2022/08/25 09:03:43;;;;;;;16.42;13.32;;;20.80;85.30;;;;;;5018876;28;20205;-88
2022/08/25 09:06:20;;;;;;;17.92;13.52;;;21.00;85.80;;;;;;5019345;28;20179;-88
2022/08/25 09:08:45;;;;;;;17.30;14.05;;;20.90;85.40;;;;;;5018808;28;20172;-88
2022/08/25 09:11:26;;;;;;;14.45;12.50;;;20.80;85.50;;;;;;5018728;28;20197;-88
2022/08/25 09:14:08;;;;;;;13.65;12.27;;;20.80;85.80;;;;;;5018604;28;20189;-89
2022/08/25 09:16:54;;;;;;;15.07;12.10;;;20.80;85.20;;;;;;5019213;28;20668;-88
2022/08/25 09:20:01;;;;;;;15.18;12.57;;;21.00;85.20;;;;;;5019592;28;20276;-89
2022/08/25 09:22:42;;;;;;;13.88;11.57;;;20.90;84.90;;;;;;5018712;28;20547;-89
2022/08/25 09:25:16;;;;;;;18.30;12.27;;;20.80;85.00;;;;;;5036361;28;20161;-88
2022/08/25 09:27:42;;;;;;;14.43;11.35;;;20.80;85.00;;;;;;5036526;28;20657;-88
2022/08/25 09:30:15;;;;;;;12.70;10.65;;;20.90;84.90;;;;;;5018969;28;20200;-88
2022/08/25 09:33:00;;;;;;;16.02;11.00;;;21.00;84.80;;;;;;5036262;28;20242;-88
2022/08/25 09:35:29;;;;;;;14.00;9.93;;;21.20;84.60;;;;;;5036698;28;20160;-88
2022/08/25 09:38:00;;;;;;;14.52;11.68;;;21.30;84.10;;;;;;5018693;28;20172;-88
2022/08/25 09:40:28;;;;;;;11.35;9.80;;;21.30;83.70;;;;;;5036015;28;20754;-87
2022/08/25 09:42:57;;;;;;;14.40;10.13;;;21.40;83.40;;;;;;5035796;28;20280;-87
2022/08/25 09:45:40;;;;;;;13.65;10.70;;;21.40;83.20;;;;;;5018107;28;20552;-87
2022/08/25 09:48:21;;;;;;;12.38;9.75;;;21.50;83.00;;;;;;5017750;28;20165;-88
2022/08/25 09:50:48;;;;;;;11.68;8.98;;;21.40;82.60;;;;;;5017975;28;20571;-88
2022/08/25 09:53:16;;;;;;;10.85;9.82;;;21.50;83.00;;;;;;5017880;28;20224;-88
2022/08/25 09:55:43;;;;;;;11.35;10.15;;;21.40;83.10;;;;;;5017992;28;20208;-88
2022/08/25 09:58:22;;;;;;;11.10;9.70;;;21.50;82.80;;;;;;5035889;28;20236;-88
2022/08/25 10:01:00;;;;;;;17.63;10.02;;;21.50;82.80;;;;;;5017881;28;20255;-89
2022/08/25 10:03:26;;;;;;;16.05;11.20;;;21.40;82.80;;;;;;5018010;28;20566;-90
2022/08/25 10:05:56;;;;;;;12.07;10.75;;;21.50;83.20;;;;;;5035553;28;20173;-89
2022/08/25 10:08:42;;;;;;;11.25;10.07;;;21.50;83.00;;;;;;5035347;28;20172;-89
2022/08/25 10:11:11;;;;;;;11.98;10.18;;;21.50;82.80;;;;;;5033747;28;20213;-86
2022/08/25 10:13:46;;;;;;;12.02;10.80;;;21.80;82.90;;;;;;5017477;28;20197;-87
2022/08/25 10:16:22;;;;;;;11.65;8.93;;;21.90;81.80;;;;;;5035045;28;20179;-87
2022/08/25 10:19:12;;;;;;;11.38;10.15;;;22.20;81.40;;;;;;5017563;28;20263;-87
2022/08/25 10:21:41;;;;;;;12.52;8.20;;;22.50;79.70;;;;;;5035175;28;20643;-87
2022/08/25 10:24:09;;;;;;;12.98;9.65;;;22.70;79.50;;;;;;5017223;28;20695;-87
2022/08/25 10:26:57;;;;;;;11.13;9.02;;;22.80;78.20;;;;;;5017202;28;20204;-87
2022/08/25 10:29:40;;;;;;;11.13;9.73;;;22.90;77.90;;;;;;5034966;28;20177;-88
2022/08/25 10:32:31;;;;;;;11.77;9.13;;;23.00;77.90;;;;;;5035151;28;20655;-88
2022/08/25 10:35:13;;;;;;;12.07;9.50;;;23.20;77.20;;;;;;5017993;28;20165;-88
2022/08/25 10:38:02;;;;;;;15.23;9.50;;;23.20;77.30;;;;;;5017995;28;20165;-88
2022/08/25 10:40:36;;;;;;;11.52;9.95;;;23.30;77.60;;;;;;5018110;28;20165;-90
2022/08/25 10:43:24;;;;;;;14.82;10.82;;;23.60;75.00;;;;;;5034882;28;20677;-89
2022/08/25 10:46:00;;;;;;;13.80;9.75;;;23.80;74.00;;;;;;5034673;28;20243;-89
2022/08/25 10:48:39;;;;;;;12.82;9.95;;;23.90;73.80;;;;;;5034787;28;20156;-89
2022/08/25 10:51:39;;;;;;;12.13;10.25;;;24.00;73.40;;;;;;5034777;28;20185;-88
2022/08/25 10:54:30;;;;;;;13.85;10.57;;;24.10;72.70;;;;;;5034500;28;20187;-88
2022/08/25 10:57:26;;;;;;;10.65;8.65;;;24.20;72.60;;;;;;5016766;28;20586;-88
2022/08/25 11:00:12;;;;;;;11.68;9.18;;;24.40;72.00;;;;;;5016758;28;20169;-88
2022/08/25 11:02:56;;;;;;;12.48;8.77;;;24.40;70.80;;;;;;5016945;28;20187;-88
2022/08/25 11:05:35;;;;;;;9.05;8.25;;;24.60;71.20;;;;;;5017257;28;20650;-88
2022/08/25 11:08:15;;;;;;;11.70;9.25;;;24.60;70.40;;;;;;5016682;28;20169;-88
2022/08/25 11:10:49;;;;;;;9.45;7.38;;;24.80;70.50;;;;;;5016529;28;20223;-89
2022/08/25 11:13:24;;;;;;;14.18;9.13;;;25.10;69.00;;;;;;5016565;28;20674;-88
2022/08/25 11:16:02;;;;;;;13.40;9.00;;;25.00;68.00;;;;;;5034121;28;20191;-88
2022/08/25 11:18:30;;;;;;;10.90;8.95;;;25.10;69.20;;;;;;5034059;28;20164;-88
2022/08/25 11:21:05;;;;;;;15.55;8.13;;;25.20;68.50;;;;;;5033974;28;20230;-88
2022/08/25 11:23:37;;;;;;;9.90;7.30;;;25.20;68.40;;;;;;5016463;28;20196;-89
2022/08/25 11:26:11;;;;;;;15.55;8.90;;;25.30;68.20;;;;;;5034537;28;20169;-89
2022/08/25 11:28:52;;;;;;;10.27;7.50;;;25.50;67.80;;;;;;5018718;28;20220;-89
2022/08/25 11:31:20;;;;;;;11.00;7.13;;;25.60;67.40;;;;;;5018121;28;20191;-89
2022/08/25 11:33:47;;;;;;;10.48;7.35;;;25.70;67.60;;;;;;5017739;28;20199;-89
2022/08/25 11:36:26;;;;;;;7.40;6.43;;;25.70;66.70;;;;;;5016282;28;20173;-89
2022/08/25 11:39:14;;;;;;;10.27;5.95;;;25.80;66.40;;;;;;5016989;28;20673;-89
2022/08/25 11:42:13;;;;;;;13.77;7.38;;;26.00;65.60;;;;;;5017264;28;20725;-90
2022/08/25 11:45:00;;;;;;;14.10;6.10;;;26.20;65.90;;;;;;5017314;28;20193;-89
2022/08/25 11:47:37;;;;;;;21.90;7.32;;;26.40;65.60;;;;;;5016439;28;20161;-89
2022/08/25 11:50:03;;;;;;;7.80;5.13;;;26.50;65.20;;;;;;5019240;28;20172;-89
2022/08/25 11:52:32;;;;;;;16.00;6.72;;;26.50;64.10;;;;;;5016816;28;20196;-90
2022/08/25 11:55:15;;;;;;;12.73;5.55;;;26.40;64.30;;;;;;5016587;28;20177;-89
2022/08/25 11:57:43;;;;;;;11.27;5.45;;;26.50;64.40;;;;;;5016294;28;20196;-89
2022/08/25 12:00:14;;;;;;;6.82;4.43;;;26.70;63.70;;;;;;5015835;28;20169;-89
2022/08/25 12:02:49;;;;;;;8.77;4.93;;;27.00;61.90;;;;;;5016241;28;20165;-90
2022/08/25 12:05:17;;;;;;;8.50;5.38;;;27.10;61.40;;;;;;5017270;28;20294;-89
2022/08/25 12:07:50;;;;;;;5.80;4.18;;;27.00;62.30;;;;;;5017865;28;20181;-89
2022/08/25 12:10:22;;;;;;;9.07;4.05;;;27.10;61.60;;;;;;5018343;28;20176;-90
2022/08/25 12:12:47;;;;;;;12.38;4.47;;;27.10;61.80;;;;;;5026538;28;20208;-90
2022/08/25 12:15:25;;;;;;;6.95;4.75;;;27.20;61.00;;;;;;5020510;28;20168;-90
2022/08/25 12:18:11;;;;;;;7.28;4.05;;;27.20;60.80;;;;;;5019973;28;20161;-90
2022/08/25 12:20:52;;;;;;;5.22;3.47;;;27.20;59.80;;;;;;5018891;28;20179;-90
2022/08/25 12:24:04;;;;;;;10.10;3.40;;;27.20;61.10;;;;;;5020780;28;20198;-90
2022/08/25 12:26:41;;;;;;;6.88;3.83;;;27.20;60.70;;;;;;5018630;28;20185;-90
2022/08/25 12:29:29;;;;;;;6.03;3.60;;;27.10;60.00;;;;;;5028369;28;20581;-89
2022/08/25 12:32:16;;;;;;;7.85;4.28;;;27.20;60.00;;;;;;5020297;28;20195;-89
2022/08/25 12:34:51;;;;;;;4.68;3.80;;;27.40;59.40;;;;;;5015554;28;20189;-89
2022/08/25 12:37:20;;;;;;;5.50;3.55;;;27.50;58.90;;;;;;5016554;28;20175;-90
2022/08/25 12:39:48;;;;;;;5.10;3.83;;;27.60;58.60;;;;;;5033362;28;20200;-89
2022/08/25 12:42:28;;;;;;;9.75;3.63;;;27.70;57.60;;;;;;5016197;28;20185;-88
2022/08/25 12:45:18;;;;;;;9.13;3.58;;;27.80;57.00;;;;;;5033582;28;20334;-88
2022/08/25 12:47:46;;;;;;;9.77;3.60;;;27.90;56.60;;;;;;5033840;28;20192;-88
2022/08/25 12:50:41;;;;;;;7.07;3.63;;;27.80;56.20;;;;;;5033254;28;20181;-88
2022/08/25 12:53:16;;;;;;;10.80;3.53;;;27.40;56.80;;;;;;5017983;28;20200;-88
2022/08/25 12:55:53;;;;;;;7.05;4.03;;;26.90;58.20;;;;;;5036249;28;20169;-90
2022/08/25 12:58:18;;;;;;;11.02;4.28;;;27.20;58.80;;;;;;5019235;28;20176;-90
2022/08/25 13:01:24;;;;;;;6.47;3.45;;;27.50;57.00;;;;;;5037419;28;20181;-90